"WATCHING THE WEATHER TO PROTECT LIFE AND PROPERTY"


Aviation
Satellite (InfraRed)


TNCA 260000Z 09017KT 9999 FEW017 29/24 Q1010 NOSIG
TNCB 252355Z AUTO 09012KT 9999 FEW015/// 28/24 Q1011
TNCC 260000Z AUTO 10011KT 9999 NCD 28/24 Q1011
TNCM 260000Z 08009KT 040V100 9999 FEW019 28/23 Q1015 NOSIG RMK A2997